Time;durP1;ratioP1;P1;durP2;ratioP2;P2;SDS_P1;SDS_P2;PMS_P1;PMS_P2;Temp;Humidity;BMP_temperature;BMP_pressure;BME280_temperature;BME280_humidity;BME280_pressure;Samples;Min_cycle;Max_cycle;Signal;HPM_P1;HPM_P2
2023/08/11 00:06:07;;;;;;;6.80;4.47;;;;;;;14.08;69.38;101690.38;15678867;28;20060;-50
2023/08/11 00:13:42;;;;;;;10.07;4.72;;;;;;;14.05;68.97;101686.25;15672771;22;20132;-55
2023/08/11 00:21:16;;;;;;;7.40;4.70;;;;;;;13.92;69.63;101694.34;15671781;28;20041;-52
2023/08/11 00:28:51;;;;;;;7.40;4.57;;;;;;;13.93;69.07;101696.84;15653992;28;20482;-53
2023/08/11 00:36:24;;;;;;;5.88;3.88;;;;;;;13.83;68.97;101698.31;15654493;28;20136;-53
2023/08/11 00:43:59;;;;;;;5.00;3.80;;;;;;;13.63;69.79;101698.31;15672394;28;20068;-52
2023/08/11 00:51:32;;;;;;;9.18;4.45;;;;;;;13.77;69.04;101697.28;15654253;28;20076;-53
2023/08/11 00:59:09;;;;;;;6.13;4.00;;;;;;;13.59;69.86;101711.38;15671434;28;20099;-55
2023/08/11 01:06:46;;;;;;;7.82;4.20;;;;;;;13.50;69.74;101712.63;15637321;28;20053;-56
2023/08/11 01:14:25;;;;;;;4.85;4.13;;;;;;;13.47;69.59;101702.22;15636582;28;20068;-54
2023/08/11 01:22:02;;;;;;;8.30;4.07;;;;;;;13.51;69.50;101712.41;15653833;28;20053;-56
2023/08/11 01:29:37;;;;;;;7.72;4.22;;;;;;;13.45;69.08;101698.91;15669360;28;20076;-55
2023/08/11 01:37:10;;;;;;;7.88;4.38;;;;;;;13.28;69.86;101698.47;15653630;28;20041;-57
2023/08/11 01:44:45;;;;;;;6.47;5.05;;;;;;;13.30;69.54;101696.41;15668909;28;20136;-57
2023/08/11 01:52:19;;;;;;;7.85;3.60;;;;;;;13.03;70.12;101692.78;15659922;28;20124;-57
2023/08/11 01:59:55;;;;;;;6.00;3.60;;;;;;;13.09;69.80;101697.34;15681000;28;20041;-55
2023/08/11 02:07:28;;;;;;;6.78;3.85;;;;;;;13.10;69.79;101701.69;15680252;28;20041;-55
2023/08/11 02:15:04;;;;;;;;;;;;;;;13.03;70.54;101707.09;15624768;28;20052;-55
2023/08/11 02:22:37;;;;;;;6.65;4.35;;;;;;;13.13;70.53;101705.88;15583242;28;19929;-50
2023/08/11 02:30:13;;;;;;;6.93;4.70;;;;;;;13.33;71.19;101695.16;15583088;28;20187;-57
2023/08/11 02:37:46;;;;;;;6.68;4.45;;;;;;;13.46;71.09;101701.41;15582766;28;20041;-57
2023/08/11 02:45:21;;;;;;;8.55;4.85;;;;;;;13.70;70.71;101704.53;15598188;28;20042;-55
2023/08/11 02:52:55;;;;;;;7.03;4.55;;;;;;;13.69;71.57;101703.69;15638563;28;20179;-55
2023/08/11 03:00:29;;;;;;;9.27;4.38;;;;;;;13.66;71.01;101663.66;15642855;28;20045;-55
2023/08/11 03:08:04;;;;;;;8.40;4.63;;;;;;;13.78;71.17;101688.13;15659597;28;20080;-53
2023/08/11 03:15:40;;;;;;;8.07;4.10;;;;;;;13.83;71.50;101690.22;15658799;28;20041;-51
2023/08/11 03:23:16;;;;;;;6.32;3.88;;;;;;;13.90;71.33;101689.19;15658605;28;20643;-53
2023/08/11 03:30:50;;;;;;;6.88;3.92;;;;;;;14.07;70.90;101686.84;15656587;28;20402;-52
2023/08/11 03:38:23;;;;;;;6.78;4.82;;;;;;;14.18;70.88;101683.53;15640457;28;20135;-52
2023/08/11 03:45:59;;;;;;;8.73;4.40;;;;;;;14.20;70.93;101684.13;15656611;28;20033;-53
2023/08/11 03:53:33;;;;;;;6.70;4.72;;;;;;;14.17;71.60;101683.72;15656158;28;20452;-54
2023/08/11 04:01:08;;;;;;;9.55;5.57;;;;;;;14.34;71.03;101678.72;15655906;28;20048;-55
2023/08/11 04:08:43;;;;;;;9.45;5.90;;;;;;;14.53;70.36;101683.25;15655757;28;20040;-55
2023/08/11 04:16:18;;;;;;;9.82;5.35;;;;;;;14.51;71.37;101688.03;15607263;28;20132;-57
2023/08/11 04:23:51;;;;;;;9.32;5.75;;;;;;;14.35;71.91;101691.16;15593183;28;20505;-56
2023/08/11 04:31:26;;;;;;;8.30;5.93;;;;;;;14.39;72.23;101685.13;15592661;28;20485;-55
2023/08/11 04:39:00;;;;;;;7.28;5.75;;;;;;;14.66;71.01;101694.00;15592914;28;20481;-58
2023/08/11 04:46:36;;;;;;;15.00;6.60;;;;;;;14.76;70.15;101701.66;15592840;28;20041;-53
2023/08/11 04:54:11;;;;;;;11.63;6.50;;;;;;;14.60;71.23;101708.38;15592487;28;20056;-55
2023/08/11 05:01:48;;;;;;;11.30;6.05;;;;;;;14.68;71.76;101718.94;15592865;28;20076;-56
2023/08/11 05:09:21;;;;;;;9.65;6.32;;;;;;;14.76;72.28;101728.69;15575836;28;20183;-53
2023/08/11 05:16:56;;;;;;;10.35;6.30;;;;;;;14.96;71.79;101728.59;15662178;28;20110;-58
2023/08/11 05:24:29;;;;;;;11.40;6.07;;;;;;;15.46;70.17;101726.03;15691464;28;20431;-56
2023/08/11 05:32:03;;;;;;;10.60;6.68;;;;;;;15.67;69.87;101728.41;15681713;28;20045;-53
2023/08/11 05:39:38;;;;;;;7.45;6.47;;;;;;;15.81;70.20;101737.28;15663690;28;20049;-57
2023/08/11 05:47:13;;;;;;;14.40;6.47;;;;;;;16.36;68.15;101733.84;15663440;28;20617;-56
2023/08/11 05:54:46;;;;;;;11.68;5.93;;;;;;;16.90;66.69;101724.91;15681240;28;20112;-54
2023/08/11 06:02:20;;;;;;;9.27;5.32;;;;;;;16.94;65.83;101728.00;15662937;28;20063;-53
2023/08/11 06:09:54;;;;;;;6.97;5.20;;;;;;;17.46;64.90;101723.72;15662301;28;20090;-55
2023/08/11 06:17:29;;;;;;;12.75;5.70;;;;;;;17.36;63.67;101733.47;15636112;22;20053;-52
2023/08/11 06:25:02;;;;;;;8.57;5.10;;;;;;;17.75;63.16;101741.03;15622056;28;20077;-52
2023/08/11 06:32:38;;;;;;;9.18;4.82;;;;;;;17.73;64.93;101736.88;15619422;28;20042;-51
2023/08/11 06:40:13;;;;;;;11.23;4.72;;;;;;;17.72;65.12;101751.50;15619274;28;20073;-53
2023/08/11 06:47:47;;;;;;;7.60;3.78;;;;;;;18.08;61.77;101750.50;15621360;28;20049;-50
2023/08/11 06:55:21;;;;;;;9.95;3.80;;;;;;;17.60;60.93;101765.06;15620199;28;20060;-54
2023/08/11 07:02:56;;;;;;;9.77;3.80;;;;;;;18.04;61.76;101752.88;15619698;28;20045;-51
2023/08/11 07:10:29;;;;;;;6.00;3.70;;;;;;;18.41;61.93;101777.09;15620487;28;20132;-53
2023/08/11 07:18:03;;;;;;;;;;;;;;;18.61;59.25;101772.13;15497221;28;20046;-50
2023/08/11 07:25:36;;;;;;;6.78;3.65;;;;;;;19.19;58.49;101769.53;15497066;28;19968;-51
2023/08/11 07:33:11;;;;;;;6.10;3.13;;;;;;;19.32;56.58;101778.25;15496820;28;20046;-51
2023/08/11 07:40:44;;;;;;;6.45;3.05;;;;;;;19.72;54.63;101776.53;15497210;28;20039;-50
2023/08/11 07:48:20;;;;;;;6.38;2.85;;;;;;;20.60;53.63;101769.47;15493694;28;20153;-52
2023/08/11 07:55:55;;;;;;;6.18;2.55;;;;;;;21.26;52.44;101777.66;15494641;28;20054;-53
2023/08/11 08:03:30;;;;;;;7.82;2.30;;;;;;;21.01;51.31;101773.53;15493718;28;20054;-51
2023/08/11 08:11:04;;;;;;;4.57;2.20;;;;;;;21.73;49.42;101769.69;15498437;28;20034;-52
2023/08/11 08:18:39;;;;;;;8.73;2.30;;;;;;;22.28;51.26;101760.28;15555697;28;20052;-53
2023/08/11 08:26:12;;;;;;;9.45;1.92;;;;;;;22.44;47.20;101760.41;15554348;28;20050;-50
2023/08/11 08:33:46;;;;;;;6.97;1.88;;;;;;;23.41;47.18;101762.44;15556357;28;20054;-51
2023/08/11 08:41:23;;;;;;;4.70;1.60;;;;;;;23.47;45.59;101760.53;15554803;28;20505;-54
2023/08/11 08:49:08;;;;;;;3.13;1.80;;;;;;;22.51;45.18;101769.19;15570601;28;20494;-50
2023/08/11 08:56:41;;;;;;;6.22;1.38;;;;;;;23.04;45.85;101773.56;15616294;28;20096;-50
2023/08/11 09:04:16;;;;;;;5.18;1.50;;;;;;;23.51;43.02;101769.84;15626244;28;20049;-55
2023/08/11 09:11:49;;;;;;;4.18;1.38;;;;;;;24.02;43.17;101758.94;15615175;28;20077;-50
2023/08/11 09:19:24;;;;;;;4.80;0.90;;;;;;;24.47;40.88;101776.44;15565568;28;20582;-53
2023/08/11 09:27:00;;;;;;;3.10;0.80;;;;;;;25.59;41.71;101775.09;15564308;28;20050;-51
2023/08/11 09:34:39;;;;;;;6.25;1.02;;;;;;;22.52;46.03;101784.50;15564541;28;20495;-53
2023/08/11 09:42:14;;;;;;;2.05;0.90;;;;;;;22.99;44.58;101786.41;15563093;28;20046;-50
2023/08/11 09:49:49;;;;;;;4.47;0.93;;;;;;;23.46;45.97;101800.00;15563802;28;20052;-54
2023/08/11 09:57:24;;;;;;;2.85;1.00;;;;;;;22.98;44.86;101793.78;15546017;28;20052;-53
2023/08/11 10:05:03;;;;;;;4.72;0.90;;;;;;;23.73;42.93;101790.72;15563229;28;20046;-51
2023/08/11 10:12:41;;;;;;;6.38;0.98;;;;;;;24.75;42.53;101787.88;15545121;28;20061;-51
2023/08/11 10:20:17;;;;;;;7.38;1.20;;;;;;;25.18;42.40;101778.94;15502188;28;20042;-55
2023/08/11 10:27:51;;;;;;;2.70;0.80;;;;;;;25.66;39.80;101776.41;15500800;28;20046;-52
2023/08/11 10:35:34;;;;;;;4.60;1.05;;;;;;;25.61;41.71;101765.47;15499022;28;20423;-53
2023/08/11 10:43:07;;;;;;;2.30;0.75;;;;;;;25.84;41.35;101758.44;15499772;28;20042;-53
2023/08/11 10:50:41;;;;;;;2.83;1.02;;;;;;;24.47;42.79;101764.63;15499728;28;20096;-54
2023/08/11 10:58:18;;;;;;;3.22;1.20;;;;;;;23.78;45.78;101774.28;15499619;28;20050;-53
2023/08/11 11:05:52;;;;;;;3.60;1.33;;;;;;;23.51;47.72;101769.03;15498074;28;20051;-51
2023/08/11 11:13:25;;;;;;;4.38;0.98;;;;;;;24.21;46.43;101769.34;15521226;28;20050;-53
2023/08/11 11:21:00;;;;;;;3.58;1.00;;;;;;;24.02;46.94;101758.13;15558632;28;20049;-53
2023/08/11 11:28:35;;;;;;;4.55;1.10;;;;;;;24.10;44.52;101752.88;15556274;28;20061;-51
2023/08/11 11:36:10;;;;;;;2.28;0.82;;;;;;;24.42;47.15;101755.31;15556656;28;20100;-55
2023/08/11 11:43:44;;;;;;;3.63;0.80;;;;;;;24.71;44.84;101756.59;15557248;28;20133;-53
2023/08/11 11:51:20;;;;;;;1.88;0.90;;;;;;;26.12;42.43;101731.22;15555550;28;20050;-52
2023/08/11 11:58:54;;;;;;;3.17;0.88;;;;;;;26.64;40.97;101737.81;15557287;28;20068;-52
2023/08/11 12:06:30;;;;;;;1.95;0.88;;;;;;;25.43;41.61;101739.47;15557683;28;20100;-53
2023/08/11 12:14:05;;;;;;;6.18;0.90;;;;;;;26.92;40.60;101736.91;15546417;23;20127;-72
2023/08/11 12:21:40;;;;;;;4.50;1.20;;;;;;;26.67;41.43;101739.97;15658369;28;20489;-72
2023/08/11 12:29:13;;;;;;;1.80;0.80;;;;;;;26.35;40.65;101724.91;15673747;28;20048;-71
2023/08/11 12:36:48;;;;;;;1.88;0.70;;;;;;;27.46;38.74;101741.06;15678725;28;20102;-71
2023/08/11 12:44:21;;;;;;;2.95;0.90;;;;;;;27.43;38.67;101740.88;15676056;28;20044;-69
2023/08/11 12:51:56;;;;;;;2.10;1.08;;;;;;;27.29;37.16;101731.72;15676527;28;20102;-71
2023/08/11 12:59:29;;;;;;;2.33;0.90;;;;;;;27.70;38.76;101737.41;15677510;28;20037;-71
2023/08/11 13:07:04;;;;;;;1.88;0.60;;;;;;;28.60;37.12;101730.53;15677534;28;20496;-71
2023/08/11 13:14:37;;;;;;;2.85;1.00;;;;;;;27.56;38.39;101734.59;15677620;28;20565;-71
2023/08/11 13:22:13;;;;;;;2.92;1.00;;;;;;;28.80;38.29;101722.94;15677064;28;20526;-71
2023/08/11 13:29:46;;;;;;;3.03;0.98;;;;;;;29.47;34.87;101725.81;15675171;28;20084;-71
2023/08/11 13:37:20;;;;;;;1.30;0.70;;;;;;;28.35;36.03;101725.50;15677227;28;20107;-71
2023/08/11 13:44:53;;;;;;;3.53;1.20;;;;;;;28.86;35.40;101711.44;15680164;28;20048;-71
2023/08/11 13:52:28;;;;;;;2.22;0.88;;;;;;;26.79;38.51;101714.75;15686085;28;20059;-71
2023/08/11 14:00:01;;;;;;;2.45;0.90;;;;;;;26.45;40.59;101699.22;15683766;28;20041;-71
2023/08/11 14:07:37;;;;;;;3.38;1.00;;;;;;;27.03;42.56;101698.16;15683248;28;20502;-70
2023/08/11 14:15:10;;;;;;;2.95;1.10;;;;;;;26.22;41.36;101695.31;15681268;28;20060;-70
2023/08/11 14:22:45;;;;;;;2.95;1.08;;;;;;;26.06;41.18;101696.59;15681497;28;20475;-71
2023/08/11 14:30:18;;;;;;;2.35;1.10;;;;;;;26.83;40.71;101696.53;15680141;28;20049;-69
2023/08/11 14:37:53;;;;;;;3.67;1.10;;;;;;;26.19;41.90;101687.66;15682840;28;20053;-70
2023/08/11 14:45:26;;;;;;;4.90;1.00;;;;;;;26.71;41.57;101689.50;15681559;28;20418;-70
2023/08/11 14:53:00;;;;;;;1.50;1.00;;;;;;;26.34;41.59;101692.97;15682164;28;20041;-70
2023/08/11 15:00:33;;;;;;;3.40;0.98;;;;;;;25.93;42.34;101695.38;15680032;28;20518;-70
2023/08/11 15:08:08;;;;;;;2.90;1.08;;;;;;;25.35;42.06;101671.34;15679664;28;20053;-71
2023/08/11 15:15:42;;;;;;;2.47;1.08;;;;;;;25.67;42.01;101684.56;15679800;28;20546;-71
2023/08/11 15:23:18;;;;;;;5.50;1.15;;;;;;;25.56;44.06;101679.44;15678950;28;20040;-70
2023/08/11 15:30:52;;;;;;;1.80;1.17;;;;;;;25.41;44.18;101670.22;15675605;28;20069;-70
2023/08/11 15:38:27;;;;;;;3.97;1.40;;;;;;;25.23;44.90;101657.19;15679156;28;20064;-73
2023/08/11 15:46:00;;;;;;;5.38;1.55;;;;;;;25.94;42.66;101659.31;15678256;28;20095;-70
2023/08/11 15:53:34;;;;;;;4.25;1.15;;;;;;;25.70;42.61;101655.69;15676746;28;20092;-72
2023/08/11 16:01:08;;;;;;;2.65;1.30;;;;;;;25.86;44.00;101659.94;15676485;28;20045;-69
2023/08/11 16:08:45;;;;;;;2.75;1.20;;;;;;;25.83;43.59;101644.00;15675521;28;20196;-70
2023/08/11 16:16:18;;;;;;;1.50;1.10;;;;;;;25.54;43.69;101637.66;15629710;28;20161;-70
2023/08/11 16:23:52;;;;;;;3.13;1.13;;;;;;;25.31;43.05;101633.75;15596296;28;20086;-70
2023/08/11 16:31:25;;;;;;;1.77;1.13;;;;;;;25.85;42.13;101635.47;15594698;28;20059;-70
2023/08/11 16:39:00;;;;;;;2.67;1.20;;;;;;;25.95;43.72;101638.09;15613559;28;20048;-69
2023/08/11 16:46:33;;;;;;;4.03;1.40;;;;;;;25.58;43.32;101625.81;15613856;28;20127;-70
2023/08/11 16:54:08;;;;;;;2.15;1.33;;;;;;;25.73;42.27;101619.31;15613302;28;20041;-70
2023/08/11 17:01:41;;;;;;;2.72;1.27;;;;;;;25.78;43.17;101611.06;15612677;28;20050;-71
2023/08/11 17:09:15;;;;;;;2.65;1.23;;;;;;;25.56;42.66;101621.72;15612150;28;20045;-70
2023/08/11 17:16:49;;;;;;;3.90;1.40;;;;;;;25.65;46.55;101623.53;15666116;28;20056;-71
2023/08/11 17:24:23;;;;;;;2.35;1.38;;;;;;;25.51;47.67;101616.25;15684884;28;20110;-70
2023/08/11 17:31:57;;;;;;;2.00;1.30;;;;;;;25.49;45.00;101607.47;15683984;28;20055;-71
2023/08/11 17:39:32;;;;;;;2.85;1.48;;;;;;;25.48;45.20;101600.34;15685085;28;20056;-70
2023/08/11 17:47:06;;;;;;;4.90;1.50;;;;;;;25.39;46.81;101598.22;15685656;28;20128;-69
2023/08/11 17:54:41;;;;;;;6.20;1.60;;;;;;;25.16;48.27;101604.47;15686051;28;20565;-69
2023/08/11 18:02:14;;;;;;;6.38;1.83;;;;;;;24.76;50.00;101605.53;15686740;28;20040;-70
2023/08/11 18:09:50;;;;;;;4.80;1.88;;;;;;;24.53;50.68;101604.31;15685419;28;20079;-72
2023/08/11 18:17:25;;;;;;;6.15;2.30;;;;;;;24.33;51.61;101602.47;15626980;28;20431;-71
2023/08/11 18:25:01;;;;;;;6.57;2.70;;;;;;;24.05;51.87;101602.03;15619720;28;20048;-71
2023/08/11 18:32:34;;;;;;;6.53;2.63;;;;;;;23.66;53.25;101601.88;15617343;28;20316;-72
2023/08/11 18:40:10;;;;;;;5.80;2.15;;;;;;;23.50;53.39;101612.00;15619655;28;20045;-70
2023/08/11 18:47:43;;;;;;;8.60;2.15;;;;;;;23.26;54.12;101625.41;15620577;28;20052;-70
2023/08/11 18:55:18;;;;;;;2.78;1.85;;;;;;;22.91;55.23;101624.31;15619622;28;20500;-70
2023/08/11 19:02:51;;;;;;;3.25;2.30;;;;;;;22.69;55.44;101623.66;15618235;28;20546;-71
2023/08/11 19:10:27;;;;;;;7.10;3.00;;;;;;;22.35;57.23;101635.06;15600818;28;20140;-71
2023/08/11 19:17:59;;;;;;;6.63;3.78;;;;;;;22.27;57.82;101627.34;15660954;28;20048;-71
2023/08/11 19:25:34;;;;;;;4.03;2.78;;;;;;;22.00;58.41;101613.78;15677386;28;20432;-72
2023/08/11 19:33:08;;;;;;;6.35;2.92;;;;;;;21.84;58.43;101617.53;15678171;28;20131;-70
2023/08/11 19:40:47;;;;;;;5.88;3.40;;;;;;;21.51;59.34;101594.94;15677834;28;20114;-71
2023/08/11 19:48:20;;;;;;;5.93;3.15;;;;;;;21.57;59.62;101623.09;15676665;28;20136;-71
2023/08/11 19:55:55;;;;;;;4.13;2.72;;;;;;;21.52;59.26;101617.59;15677995;28;20060;-71
2023/08/11 20:03:28;;;;;;;5.93;2.65;;;;;;;21.37;59.58;101610.94;15658152;28;20573;-71
2023/08/11 20:11:03;;;;;;;6.15;2.70;;;;;;;21.36;59.63;101606.56;15676020;28;20045;-73
2023/08/11 20:18:36;;;;;;;7.25;3.20;;;;;;;21.25;60.33;101593.88;15675312;28;20041;-69
2023/08/11 20:26:10;;;;;;;7.45;3.03;;;;;;;21.19;60.18;101608.56;15672335;28;20047;-71
2023/08/11 20:33:43;;;;;;;3.78;2.80;;;;;;;20.98;60.49;101621.19;15675117;28;20507;-70
2023/08/11 20:41:18;;;;;;;3.25;2.55;;;;;;;20.76;61.60;101621.25;15675659;28;20128;-69
2023/08/11 20:48:51;;;;;;;6.07;2.60;;;;;;;20.78;61.52;101624.53;15658816;28;20476;-71
2023/08/11 20:56:25;;;;;;;5.55;3.40;;;;;;;20.74;61.40;101601.59;15682281;28;20045;-69
2023/08/11 21:04:00;;;;;;;5.18;2.80;;;;;;;20.66;61.58;101593.03;15687760;28;20076;-71
2023/08/11 21:11:34;;;;;;;5.85;2.88;;;;;;;20.64;61.28;101594.13;15679140;28;20041;-71
2023/08/11 21:19:09;;;;;;;3.92;2.97;;;;;;;20.66;61.02;101602.06;15609230;28;20045;-71
2023/08/11 21:26:44;;;;;;;5.47;3.05;;;;;;;20.49;61.61;101595.88;15622353;28;20136;-71
2023/08/11 21:34:17;;;;;;;5.53;3.92;;;;;;;20.47;61.14;101596.13;15623702;28;20037;-72
2023/08/11 21:41:52;;;;;;;7.22;3.17;;;;;;;20.52;60.94;101600.81;15623759;28;20543;-71
2023/08/11 21:49:25;;;;;;;5.47;2.53;;;;;;;20.30;59.66;101606.25;15622638;28;20140;-70
2023/08/11 21:57:00;;;;;;;5.07;2.75;;;;;;;20.80;59.11;101603.31;15604808;28;20076;-70
2023/08/11 22:04:34;;;;;;;4.20;2.60;;;;;;;20.88;59.43;101591.91;15602778;28;20068;-71
2023/08/11 22:12:10;;;;;;;5.25;2.97;;;;;;;20.68;58.52;101563.59;15621430;28;20516;-72
2023/08/11 22:19:46;;;;;;;5.63;3.25;;;;;;;20.60;58.03;101579.34;15620752;28;20086;-70
2023/08/11 22:27:20;;;;;;;4.05;2.78;;;;;;;20.29;59.55;101577.34;15619184;28;20060;-71
2023/08/11 22:34:53;;;;;;;3.88;3.00;;;;;;;20.06;60.62;101576.50;15620064;28;20511;-72
2023/08/11 22:42:28;;;;;;;;;;;;;;;20.20;59.62;101574.22;15619888;28;20256;-70
2023/08/11 22:50:01;;;;;;;5.65;3.05;;;;;;;20.30;59.45;101566.16;15620407;28;20375;-72
2023/08/11 22:57:36;;;;;;;7.20;3.40;;;;;;;20.45;59.04;101564.69;15619109;28;20038;-71
2023/08/11 23:05:10;;;;;;;5.18;3.22;;;;;;;20.37;60.25;101569.50;15617886;28;20470;-71
2023/08/11 23:12:54;;;;;;;4.25;3.20;;;;;;;20.13;60.97;101571.69;15637847;28;20111;-70
2023/08/11 23:20:27;;;;;;;5.53;3.42;;;;;;;20.09;61.67;101569.72;15678515;28;20049;-70
2023/08/11 23:28:01;;;;;;;6.32;3.60;;;;;;;19.86;62.03;101568.06;15660494;28;20041;-70
2023/08/11 23:35:36;;;;;;;4.80;3.30;;;;;;;19.65;62.27;101560.69;15678823;28;20060;-70
2023/08/11 23:43:10;;;;;;;8.32;3.70;;;;;;;19.50;62.72;101562.09;15678533;28;20048;-70
2023/08/11 23:50:43;;;;;;;4.85;3.50;;;;;;;19.27;63.82;101567.72;15659331;28;20128;-71
2023/08/11 23:58:20;;;;;;;;;;;;;;;19.08;64.40;101575.31;15658798;28;20075;-71
